Time;durP1;ratioP1;P1;durP2;ratioP2;P2;SDS_P1;SDS_P2;PMS_P1;PMS_P2;Temp;Humidity;BMP_temperature;BMP_pressure;BME280_temperature;BME280_humidity;BME280_pressure;Samples;Min_cycle;Max_cycle;Signal;HPM_P1;HPM_P2
2022/09/05 00:01:27;;;;;;;16.57;14.97;;;15.60;81.10;;;;;;6148761;23;20430;-53
2022/09/05 00:04:19;;;;;;;17.60;15.00;;;15.60;85.90;;;;;;6147980;23;20835;-52
2022/09/05 00:06:57;;;;;;;17.07;15.57;;;15.60;93.60;;;;;;6149105;23;21359;-48
2022/09/05 00:09:56;;;;;;;17.03;15.33;;;15.50;96.00;;;;;;6149294;23;20377;-49
2022/09/05 00:12:24;;;;;;;16.37;14.87;;;15.50;95.20;;;;;;6148805;23;20521;-52
2022/09/05 00:15:31;;;;;;;16.03;14.63;;;15.50;96.80;;;;;;6149046;23;20374;-51
2022/09/05 00:18:14;;;;;;;16.70;15.10;;;15.40;98.30;;;;;;6148602;23;20887;-49
2022/09/05 00:21:10;;;;;;;16.30;14.80;;;15.40;99.90;;;;;;6148963;23;21124;-49
2022/09/05 00:23:57;;;;;;;17.90;16.20;;;15.40;99.90;;;;;;6149268;23;20360;-51
2022/09/05 00:26:37;;;;;;;17.10;15.70;;;15.40;99.90;;;;;;6148979;23;20376;-47
2022/09/05 00:29:22;;;;;;;16.80;15.20;;;15.30;99.90;;;;;;6149061;23;20372;-52
2022/09/05 00:31:54;;;;;;;17.07;15.43;;;15.30;99.90;;;;;;6221436;22;20379;-54
2022/09/05 00:34:53;;;;;;;16.43;15.00;;;15.30;99.90;;;;;;6272841;22;20360;-48
2022/09/05 00:37:38;;;;;;;17.50;16.00;;;15.30;99.90;;;;;;6272468;22;20357;-50
2022/09/05 00:40:46;;;;;;;16.97;15.37;;;15.30;99.90;;;;;;6273024;22;20363;-51
2022/09/05 00:43:27;;;;;;;16.30;14.90;;;15.20;99.90;;;;;;6272604;22;20409;-50
2022/09/05 00:46:12;;;;;;;17.97;16.40;;;15.20;99.90;;;;;;6272398;22;20454;-48
2022/09/05 00:49:10;;;;;;;18.00;16.30;;;15.20;99.90;;;;;;6271220;22;20408;-49
2022/09/05 00:51:54;;;;;;;18.60;16.80;;;15.10;99.90;;;;;;6256292;22;20442;-52
2022/09/05 00:54:23;;;;;;;17.37;15.77;;;15.10;99.90;;;;;;6272674;22;20371;-54
2022/09/05 00:57:36;;;;;;;17.20;15.57;;;15.10;99.90;;;;;;6272387;22;20380;-49
2022/09/05 01:00:11;;;;;;;17.83;16.30;;;15.00;99.90;;;;;;6272743;22;20371;-51
2022/09/05 01:02:36;;;;;;;18.43;16.63;;;15.00;99.90;;;;;;6272333;22;20367;-52
2022/09/05 01:05:26;;;;;;;18.07;16.37;;;15.00;99.90;;;;;;6272595;22;20384;-52
2022/09/05 01:08:13;;;;;;;17.80;15.97;;;14.90;99.90;;;;;;6272334;22;20159;-49
2022/09/05 01:10:53;;;;;;;18.47;16.67;;;14.90;99.90;;;;;;6272430;22;20411;-54
2022/09/05 01:13:34;;;;;;;20.07;18.17;;;14.80;99.90;;;;;;6272223;22;20362;-51
2022/09/05 01:16:08;;;;;;;18.10;16.50;;;14.80;99.90;;;;;;6271928;22;20442;-51
2022/09/05 01:18:58;;;;;;;17.60;16.00;;;14.80;99.90;;;;;;6272077;22;20454;-52
2022/09/05 01:22:00;;;;;;;17.50;15.80;;;14.80;99.90;;;;;;6272412;22;20416;-52
2022/09/05 01:24:25;;;;;;;17.67;16.03;;;14.80;99.90;;;;;;6272464;22;20689;-49
2022/09/05 01:27:28;;;;;;;17.43;15.90;;;14.80;99.90;;;;;;6271857;22;20457;-51
2022/09/05 01:30:10;;;;;;;17.20;15.50;;;14.80;99.90;;;;;;6272099;22;20172;-53
2022/09/05 01:33:02;;;;;;;17.53;15.83;;;14.80;99.90;;;;;;6271897;22;20883;-50
2022/09/05 01:35:40;;;;;;;20.57;18.67;;;14.70;99.90;;;;;;6272497;22;20375;-49
2022/09/05 01:38:14;;;;;;;19.43;17.53;;;14.70;99.90;;;;;;6272246;22;20447;-51
2022/09/05 01:41:04;;;;;;;19.60;17.80;;;14.80;99.90;;;;;;6272015;22;20423;-53
2022/09/05 01:43:39;;;;;;;21.90;18.30;;;14.70;99.90;;;;;;6272024;22;20363;-49
2022/09/05 01:46:30;;;;;;;19.27;17.57;;;14.70;99.90;;;;;;6272245;22;20421;-50
2022/09/05 01:49:12;;;;;;;19.87;17.87;;;14.80;99.90;;;;;;6272321;22;20371;-53
2022/09/05 01:52:20;;;;;;;19.10;17.40;;;14.70;99.90;;;;;;6272222;22;20443;-52
2022/09/05 01:55:15;;;;;;;19.67;17.87;;;14.80;99.90;;;;;;6255727;22;20440;-49
2022/09/05 01:58:01;;;;;;;19.77;17.80;;;14.80;99.90;;;;;;6271207;22;20392;-49
2022/09/05 02:00:59;;;;;;;21.23;19.23;;;14.80;99.90;;;;;;6271444;22;20370;-48
2022/09/05 02:04:05;;;;;;;19.73;17.93;;;14.80;99.90;;;;;;6271727;22;20422;-50
2022/09/05 02:06:40;;;;;;;20.40;18.50;;;14.90;99.90;;;;;;6272012;22;20675;-47
2022/09/05 02:09:15;;;;;;;21.03;19.10;;;15.00;99.90;;;;;;6272002;22;20802;-48
2022/09/05 02:11:56;;;;;;;21.27;19.17;;;15.10;99.90;;;;;;6272300;22;20538;-51
2022/09/05 02:14:43;;;;;;;19.40;17.40;;;15.10;99.90;;;;;;6271369;22;20359;-50
2022/09/05 02:17:37;;;;;;;20.23;18.43;;;15.10;99.90;;;;;;6271860;22;20466;-53
2022/09/05 02:20:39;;;;;;;20.53;18.53;;;15.10;99.90;;;;;;6272002;22;20356;-51
2022/09/05 02:23:14;;;;;;;21.00;18.93;;;15.20;99.90;;;;;;6272034;22;20366;-50
2022/09/05 02:25:48;;;;;;;19.87;18.07;;;15.20;99.90;;;;;;6272354;22;20363;-53
2022/09/05 02:28:30;;;;;;;19.60;17.80;;;15.20;99.90;;;;;;6273930;22;20374;-51
2022/09/05 02:31:03;;;;;;;20.20;18.33;;;15.20;99.90;;;;;;6273895;22;20407;-49
2022/09/05 02:33:39;;;;;;;20.50;18.60;;;15.30;99.90;;;;;;6273812;22;20980;-47
2022/09/05 02:36:27;;;;;;;19.20;17.40;;;15.30;99.90;;;;;;6274138;22;20439;-49
2022/09/05 02:39:07;;;;;;;18.60;16.97;;;15.30;99.90;;;;;;6274004;22;20360;-52
2022/09/05 02:41:51;;;;;;;18.07;16.47;;;15.30;99.90;;;;;;6274272;22;20379;-50
2022/09/05 02:44:19;;;;;;;17.80;16.10;;;15.20;99.90;;;;;;6273804;22;20387;-50
2022/09/05 02:47:09;;;;;;;19.10;17.33;;;15.20;99.90;;;;;;6273834;22;20423;-51
2022/09/05 02:49:53;;;;;;;19.43;17.57;;;15.10;99.90;;;;;;6273902;22;20439;-48
2022/09/05 02:52:20;;;;;;;18.00;16.40;;;15.10;99.90;;;;;;6273770;22;20412;-52
2022/09/05 02:54:49;;;;;;;19.83;17.93;;;15.00;99.90;;;;;;6273755;22;20383;-52
2022/09/05 02:57:43;;;;;;;21.10;18.07;;;15.00;99.90;;;;;;6272837;22;20716;-53
2022/09/05 03:00:17;;;;;;;19.00;17.20;;;14.90;99.90;;;;;;6269805;22;20394;-52
2022/09/05 03:03:01;;;;;;;19.43;17.63;;;14.80;99.90;;;;;;6273596;22;20368;-47
2022/09/05 03:05:58;;;;;;;18.40;16.67;;;14.80;99.90;;;;;;6273664;22;20366;-52
2022/09/05 03:08:48;;;;;;;18.50;16.87;;;14.80;99.90;;;;;;6273773;22;20371;-54
2022/09/05 03:11:32;;;;;;;19.60;17.80;;;14.70;99.90;;;;;;6273732;22;20489;-49
2022/09/05 03:14:03;;;;;;;18.73;17.03;;;14.60;99.90;;;;;;6273786;22;20472;-49
2022/09/05 03:17:23;;;;;;;19.80;17.90;;;14.60;99.90;;;;;;6273808;22;20362;-52
2022/09/05 03:20:18;;;;;;;19.00;17.20;;;14.60;99.90;;;;;;6149601;23;20454;-49
2022/09/05 03:22:56;;;;;;;20.07;18.07;;;14.50;99.90;;;;;;6272689;22;20456;-52
2022/09/05 03:26:03;;;;;;;18.57;16.90;;;14.50;99.90;;;;;;6273650;22;20381;-48
2022/09/05 03:29:02;;;;;;;17.70;16.10;;;14.40;99.90;;;;;;6273593;22;20390;-52
2022/09/05 03:32:14;;;;;;;18.70;17.00;;;14.40;99.90;;;;;;6273437;22;20512;-51
2022/09/05 03:35:08;;;;;;;19.87;18.07;;;14.30;99.90;;;;;;6273435;22;20690;-52
2022/09/05 03:37:48;;;;;;;18.80;17.00;;;14.30;99.90;;;;;;6273435;22;20367;-51
2022/09/05 03:40:45;;;;;;;19.77;17.87;;;14.30;99.90;;;;;;6273420;22;20793;-51
2022/09/05 03:43:38;;;;;;;18.97;17.17;;;14.30;99.90;;;;;;6264491;22;20384;-53
2022/09/05 03:46:23;;;;;;;18.57;16.80;;;14.20;99.90;;;;;;6273226;22;20379;-53
2022/09/05 03:49:00;;;;;;;20.53;18.57;;;14.20;99.90;;;;;;6273488;22;20362;-55
2022/09/05 03:51:47;;;;;;;19.20;17.40;;;14.10;99.90;;;;;;6273209;22;20814;-53
2022/09/05 03:54:55;;;;;;;19.63;17.80;;;14.10;99.90;;;;;;6273056;22;20374;-51
2022/09/05 03:57:23;;;;;;;20.60;18.50;;;14.10;99.90;;;;;;6272671;22;20352;-54
2022/09/05 04:00:09;;;;;;;20.70;18.73;;;14.10;99.90;;;;;;6272966;22;20828;-47
2022/09/05 04:02:49;;;;;;;22.43;20.17;;;14.10;99.90;;;;;;6272778;22;20386;-50
2022/09/05 04:05:25;;;;;;;20.30;18.40;;;14.10;99.90;;;;;;6273126;22;20850;-52
2022/09/05 04:08:28;;;;;;;20.80;18.80;;;14.10;99.90;;;;;;6272932;22;20373;-51
2022/09/05 04:11:16;;;;;;;20.80;18.70;;;14.00;99.90;;;;;;6163778;22;20442;-53
2022/09/05 04:14:03;;;;;;;20.90;18.93;;;14.00;99.90;;;;;;6272983;22;20430;-52
2022/09/05 04:16:40;;;;;;;21.73;19.73;;;14.00;99.90;;;;;;6273341;22;20450;-53
2022/09/05 04:19:17;;;;;;;20.43;18.47;;;14.00;99.90;;;;;;6272940;22;20400;-47
2022/09/05 04:21:55;;;;;;;20.80;18.70;;;14.00;99.90;;;;;;6273373;22;21060;-48
2022/09/05 04:24:34;;;;;;;20.00;18.10;;;14.00;99.90;;;;;;6272723;22;20421;-49
2022/09/05 04:27:30;;;;;;;20.30;18.40;;;14.00;99.90;;;;;;6272871;22;20366;-50
2022/09/05 04:30:03;;;;;;;21.90;19.70;;;14.00;99.90;;;;;;6272694;22;20414;-51
2022/09/05 04:32:49;;;;;;;21.60;19.50;;;14.00;99.90;;;;;;6272802;22;20362;-50
2022/09/05 04:35:38;;;;;;;20.97;18.97;;;14.00;99.90;;;;;;6272969;22;20684;-50
2022/09/05 04:38:17;;;;;;;20.77;18.77;;;14.10;99.90;;;;;;6273065;22;20370;-53
2022/09/05 04:40:49;;;;;;;20.70;18.70;;;14.10;99.90;;;;;;6273425;22;20354;-53
2022/09/05 04:43:34;;;;;;;27.17;20.93;;;14.10;99.90;;;;;;6272804;22;20367;-48
2022/09/05 04:46:06;;;;;;;38.40;23.90;;;14.10;99.90;;;;;;6272825;22;20359;-49
2022/09/05 04:48:59;;;;;;;21.47;19.37;;;14.10;99.90;;;;;;6272044;22;20361;-49
2022/09/05 04:51:55;;;;;;;21.63;19.53;;;14.10;99.90;;;;;;6272605;22;20826;-51
2022/09/05 04:54:38;;;;;;;25.23;20.43;;;14.10;99.90;;;;;;6272543;22;20509;-49
2022/09/05 04:57:26;;;;;;;21.67;19.67;;;14.20;99.90;;;;;;6273111;22;20673;-46
2022/09/05 05:00:24;;;;;;;23.73;20.80;;;14.20;99.90;;;;;;6272579;22;20401;-49
2022/09/05 05:03:02;;;;;;;23.20;20.80;;;14.30;99.90;;;;;;6271636;22;21027;-46
2022/09/05 05:05:54;;;;;;;21.87;19.67;;;14.30;99.90;;;;;;6272845;22;20374;-51
2022/09/05 05:08:33;;;;;;;23.93;21.53;;;14.30;99.90;;;;;;6272396;22;20364;-49
2022/09/05 05:11:06;;;;;;;22.17;20.00;;;14.40;99.90;;;;;;6272548;22;20482;-48
2022/09/05 05:13:44;;;;;;;21.77;19.67;;;14.40;99.90;;;;;;6272763;22;20364;-52
2022/09/05 05:16:27;;;;;;;22.57;20.27;;;14.50;99.90;;;;;;6272707;22;20359;-51
2022/09/05 05:18:56;;;;;;;31.70;24.53;;;14.50;99.90;;;;;;6271431;22;20493;-52
2022/09/05 05:21:26;;;;;;;32.30;25.00;;;14.50;99.90;;;;;;6272260;22;20849;-52
2022/09/05 05:24:18;;;;;;;27.33;22.37;;;14.50;99.90;;;;;;6270456;22;20413;-47
2022/09/05 05:26:50;;;;;;;23.47;20.97;;;14.60;99.90;;;;;;6272288;22;20694;-48
2022/09/05 05:29:19;;;;;;;23.80;20.17;;;14.60;99.90;;;;;;6272360;22;20375;-48
2022/09/05 05:31:52;;;;;;;24.80;21.47;;;14.60;99.90;;;;;;6272486;22;20423;-52
2022/09/05 05:34:31;;;;;;;23.37;20.97;;;14.60;99.90;;;;;;6271911;22;20418;-49
2022/09/05 05:37:28;;;;;;;23.00;20.70;;;14.70;99.90;;;;;;6272444;22;20454;-48
2022/09/05 05:40:09;;;;;;;22.20;20.10;;;14.70;99.90;;;;;;6263381;22;20391;-49
2022/09/05 05:42:39;;;;;;;21.77;19.47;;;14.80;99.90;;;;;;6272563;22;21177;-48
2022/09/05 05:45:17;;;;;;;21.50;19.30;;;14.80;99.90;;;;;;6272219;22;20387;-54
2022/09/05 05:47:47;;;;;;;23.47;21.07;;;14.90;99.90;;;;;;6271845;22;20378;-49
2022/09/05 05:51:02;;;;;;;21.40;19.50;;;15.00;99.90;;;;;;6271865;22;20584;-51
2022/09/05 05:53:34;;;;;;;22.47;20.10;;;15.10;99.90;;;;;;6272256;22;21038;-48
2022/09/05 05:56:38;;;;;;;22.47;20.27;;;15.10;99.90;;;;;;6272158;22;20873;-48
2022/09/05 05:59:31;;;;;;;22.40;20.40;;;15.20;99.90;;;;;;6171500;22;20765;-50
2022/09/05 06:02:32;;;;;;;23.40;21.20;;;15.40;99.90;;;;;;6271449;22;20376;-47
2022/09/05 06:05:35;;;;;;;22.10;19.90;;;15.50;99.90;;;;;;6270321;22;20417;-50
2022/09/05 06:08:13;;;;;;;22.40;20.00;;;15.60;99.90;;;;;;6271934;22;20823;-48
2022/09/05 06:11:16;;;;;;;20.80;18.80;;;15.70;99.90;;;;;;6271853;22;20711;-54
2022/09/05 06:13:57;;;;;;;23.27;20.97;;;15.80;99.90;;;;;;6271960;22;20403;-50
2022/09/05 06:17:01;;;;;;;22.73;20.33;;;16.00;99.90;;;;;;6272056;22;20373;-52
2022/09/05 06:20:04;;;;;;;21.83;19.63;;;16.20;99.90;;;;;;6252658;22;20484;-51
2022/09/05 06:22:50;;;;;;;21.70;19.70;;;16.40;99.90;;;;;;6272147;22;20420;-50
2022/09/05 06:26:01;;;;;;;21.80;19.77;;;16.50;99.90;;;;;;6271877;22;20355;-49
2022/09/05 06:28:54;;;;;;;20.33;18.43;;;16.80;99.90;;;;;;6272145;22;20839;-53
2022/09/05 06:31:51;;;;;;;21.40;19.30;;;17.00;99.90;;;;;;6271438;22;20435;-50
2022/09/05 06:34:34;;;;;;;19.50;17.60;;;17.20;99.90;;;;;;6271704;22;20360;-50
2022/09/05 06:37:15;;;;;;;19.13;17.33;;;17.40;99.90;;;;;;6271831;22;20367;-51
2022/09/05 06:40:33;;;;;;;18.40;16.70;;;17.60;86.70;;;;;;6271661;22;20356;-51
2022/09/05 06:43:25;;;;;;;19.33;17.53;;;17.80;71.00;;;;;;6204449;22;20386;-49
2022/09/05 06:46:30;;;;;;;18.57;16.57;;;18.00;52.80;;;;;;6271772;22;20708;-49
2022/09/05 06:49:37;;;;;;;17.47;15.97;;;18.20;45.20;;;;;;6270989;22;20353;-48
2022/09/05 06:52:31;;;;;;;18.77;17.07;;;18.40;36.60;;;;;;6269898;22;20395;-49
2022/09/05 06:55:16;;;;;;;17.77;16.27;;;18.60;22.60;;;;;;6271586;22;20363;-48
2022/09/05 06:58:00;;;;;;;17.60;16.00;;;18.70;16.90;;;;;;6271481;22;20371;-47
2022/09/05 07:00:44;;;;;;;18.47;16.77;;;18.80;8.80;;;;;;6269571;22;20395;-51
2022/09/05 07:03:32;;;;;;;18.77;16.80;;;19.00;1.00;;;;;;6271958;22;20356;-53
2022/09/05 07:06:29;;;;;;;19.20;17.50;;;19.10;1.00;;;;;;6271146;22;20447;-50
2022/09/05 07:09:26;;;;;;;17.53;15.93;;;19.20;1.00;;;;;;6203535;22;20379;-46
2022/09/05 07:11:57;;;;;;;16.90;15.50;;;19.30;1.00;;;;;;6272140;22;20408;-51
2022/09/05 07:14:27;;;;;;;18.40;16.80;;;19.50;1.00;;;;;;6273500;22;20363;-50
2022/09/05 07:17:15;;;;;;;17.17;15.77;;;19.50;1.00;;;;;;6272461;22;20749;-50
2022/09/05 07:19:54;;;;;;;17.30;15.60;;;19.60;1.00;;;;;;6273244;22;20363;-49
2022/09/05 07:22:43;;;;;;;17.30;15.80;;;19.80;1.00;;;;;;6272838;22;20432;-53
2022/09/05 07:25:14;;;;;;;16.73;15.33;;;20.00;1.00;;;;;;6273057;22;20404;-53
2022/09/05 07:27:48;;;;;;;18.70;17.03;;;20.20;1.00;;;;;;6273456;22;20416;-49
2022/09/05 07:30:17;;;;;;;16.30;14.80;;;20.20;1.00;;;;;;6271903;22;20411;-51
2022/09/05 07:32:46;;;;;;;18.90;17.17;;;20.40;1.00;;;;;;6274260;22;20806;-52
2022/09/05 07:35:21;;;;;;;17.67;16.07;;;20.40;1.00;;;;;;6273375;22;20351;-51
2022/09/05 07:38:13;;;;;;;16.90;15.47;;;20.60;1.00;;;;;;6273405;22;20359;-49
2022/09/05 07:40:51;;;;;;;17.10;15.67;;;20.70;1.00;;;;;;6273375;22;20391;-49
2022/09/05 07:43:25;;;;;;;17.47;15.97;;;20.90;1.00;;;;;;6273599;22;20359;-51
2022/09/05 07:45:59;;;;;;;17.73;16.07;;;21.00;1.00;;;;;;6273428;22;20375;-53
2022/09/05 07:48:28;;;;;;;17.40;16.00;;;21.10;1.00;;;;;;6272644;22;20359;-52
2022/09/05 07:51:01;;;;;;;17.57;16.07;;;21.20;1.00;;;;;;6273217;22;20418;-50
2022/09/05 07:53:29;;;;;;;17.17;15.57;;;21.30;1.00;;;;;;6272827;22;20368;-50
2022/09/05 07:56:01;;;;;;;16.30;15.00;;;21.30;1.00;;;;;;6273466;22;20371;-50
2022/09/05 07:58:44;;;;;;;16.10;14.80;;;21.40;1.00;;;;;;6273187;22;20368;-49
2022/09/05 08:01:11;;;;;;;16.37;14.87;;;21.60;1.00;;;;;;6272795;22;20481;-50
2022/09/05 08:03:37;;;;;;;15.53;14.23;;;21.60;99.90;;;;;;6273121;22;21047;-54
2022/09/05 08:06:08;;;;;;;16.67;15.23;;;21.80;99.90;;;;;;6273163;22;20375;-52
2022/09/05 08:09:05;;;;;;;17.00;15.70;;;22.00;99.90;;;;;;6271562;22;20385;-53
2022/09/05 08:11:34;;;;;;;17.50;15.90;;;22.20;99.90;;;;;;6272807;22;20421;-52
2022/09/05 08:14:29;;;;;;;16.30;14.70;;;22.40;1.00;;;;;;6273143;22;20386;-51
2022/09/05 08:16:54;;;;;;;16.43;15.13;;;22.60;1.00;;;;;;6256514;22;20906;-53
2022/09/05 08:19:42;;;;;;;17.60;16.17;;;22.70;99.90;;;;;;6273117;22;20402;-49
2022/09/05 08:22:19;;;;;;;16.73;15.40;;;22.80;1.00;;;;;;6272878;22;20440;-52
2022/09/05 08:24:53;;;;;;;16.00;14.60;;;23.00;99.90;;;;;;6271806;22;20396;-54
2022/09/05 08:27:28;;;;;;;15.83;14.63;;;23.10;1.00;;;;;;6272958;22;20833;-48
2022/09/05 08:30:10;;;;;;;16.17;14.97;;;23.30;1.00;;;;;;6272921;22;20387;-51
2022/09/05 08:32:56;;;;;;;15.73;14.53;;;23.50;99.90;;;;;;6272450;22;20362;-50
2022/09/05 08:35:29;;;;;;;16.90;15.50;;;23.90;52.60;;;;;;6272734;22;20409;-54
2022/09/05 08:37:56;;;;;;;16.03;14.73;;;24.20;91.80;;;;;;6273006;22;20364;-52
2022/09/05 08:40:28;;;;;;;16.50;15.30;;;24.30;99.90;;;;;;6273104;22;20892;-53
2022/09/05 08:43:01;;;;;;;16.00;14.60;;;24.60;99.90;;;;;;6272909;22;20394;-53
2022/09/05 08:46:07;;;;;;;16.20;14.90;;;24.80;99.90;;;;;;6272753;22;20446;-49
2022/09/05 08:48:53;;;;;;;16.27;15.07;;;25.40;72.00;;;;;;6148828;23;20387;-54
2022/09/05 08:51:27;;;;;;;15.93;14.73;;;25.60;1.00;;;;;;6148796;23;20452;-53
2022/09/05 08:54:15;;;;;;;15.53;14.30;;;26.00;1.00;;;;;;6148637;23;20854;-52
2022/09/05 08:56:53;;;;;;;15.33;14.23;;;26.80;99.90;;;;;;6148878;23;20363;-53
2022/09/05 09:00:00;;;;;;;15.87;14.60;;;27.40;13.80;;;;;;6148212;23;20843;-53
2022/09/05 09:02:37;;;;;;;15.10;14.10;;;28.00;1.00;;;;;;6140966;23;20395;-48
2022/09/05 09:05:22;;;;;;;15.20;14.10;;;28.40;1.00;;;;;;6148854;23;20394;-53
2022/09/05 09:08:19;;;;;;;15.30;14.20;;;29.00;1.00;;;;;;6138172;23;20401;-52
2022/09/05 09:10:59;;;;;;;14.70;13.60;;;29.40;1.00;;;;;;6148887;23;20418;-52
2022/09/05 09:13:34;;;;;;;15.67;14.57;;;30.30;99.90;;;;;;6148594;23;20383;-49
2022/09/05 09:16:25;;;;;;;15.87;14.77;;;30.60;99.90;;;;;;6123893;23;20390;-52
2022/09/05 09:18:50;;;;;;;15.57;14.37;;;31.30;99.90;;;;;;6186925;22;20511;-53
2022/09/05 09:21:24;;;;;;;15.87;14.77;;;31.60;99.90;;;;;;6272514;22;20403;-51
2022/09/05 09:24:09;;;;;;;15.77;14.47;;;31.90;99.90;;;;;;6272286;22;20552;-51
2022/09/05 09:27:00;;;;;;;16.20;15.10;;;32.50;99.90;;;;;;6270810;22;20379;-53
2022/09/05 09:29:27;;;;;;;17.13;15.93;;;32.80;99.90;;;;;;6271946;22;20361;-51
2022/09/05 09:32:09;;;;;;;15.80;14.80;;;32.90;99.90;;;;;;6270147;22;20878;-47
2022/09/05 09:34:46;;;;;;;15.67;14.50;;;33.10;99.90;;;;;;6272109;22;20399;-53
2022/09/05 09:37:39;;;;;;;15.87;14.97;;;33.60;99.90;;;;;;6272319;22;20912;-54
2022/09/05 09:40:17;;;;;;;15.60;14.60;;;33.60;99.90;;;;;;6272190;22;20740;-50
2022/09/05 09:42:46;;;;;;;16.53;15.53;;;33.80;99.90;;;;;;6272350;22;20810;-51
2022/09/05 09:45:30;;;;;;;15.77;14.87;;;33.90;99.90;;;;;;6272131;22;20478;-53
2022/09/05 09:47:59;;;;;;;16.73;15.70;;;33.90;99.90;;;;;;6270575;22;20375;-53
2022/09/05 09:50:36;;;;;;;15.80;14.80;;;34.00;99.90;;;;;;6271940;22;20411;-50
2022/09/05 09:53:13;;;;;;;15.90;14.87;;;34.00;99.90;;;;;;6272140;22;20432;-51
2022/09/05 09:56:04;;;;;;;16.50;15.50;;;34.30;99.90;;;;;;6272122;22;20720;-50
2022/09/05 09:58:52;;;;;;;15.53;14.63;;;34.10;99.90;;;;;;6271404;22;20701;-49
2022/09/05 10:01:37;;;;;;;14.70;13.90;;;34.60;99.90;;;;;;6252642;22;20405;-49
2022/09/05 10:04:32;;;;;;;13.70;12.80;;;34.60;99.90;;;;;;6272034;22;20364;-54
2022/09/05 10:07:35;;;;;;;13.00;12.20;;;34.00;99.90;;;;;;6272012;22;20854;-49
2022/09/05 10:10:01;;;;;;;12.93;12.13;;;34.20;99.90;;;;;;6271497;22;20430;-49
2022/09/05 10:12:44;;;;;;;13.70;12.87;;;33.60;99.90;;;;;;6272124;22;20374;-54
2022/09/05 10:15:18;;;;;;;13.53;12.73;;;33.90;99.90;;;;;;6272147;22;20148;-51
2022/09/05 10:17:53;;;;;;;12.37;11.67;;;34.80;99.90;;;;;;6271735;22;20430;-55
2022/09/05 10:20:38;;;;;;;12.30;11.60;;;34.60;99.90;;;;;;6272424;22;20837;-51
2022/09/05 10:23:04;;;;;;;11.83;11.13;;;34.60;99.90;;;;;;6272207;22;20440;-50
2022/09/05 10:25:44;;;;;;;13.13;12.33;;;34.70;99.90;;;;;;6271756;22;20363;-52
2022/09/05 10:28:16;;;;;;;11.60;11.00;;;35.00;99.90;;;;;;6272375;22;20143;-48
2022/09/05 10:30:51;;;;;;;11.80;11.10;;;35.10;99.90;;;;;;6271082;22;20433;-53
2022/09/05 10:33:28;;;;;;;11.40;10.50;;;35.50;99.90;;;;;;6271561;22;20361;-53
2022/09/05 10:36:14;;;;;;;13.40;12.50;;;35.60;99.90;;;;;;6272134;22;20405;-51
2022/09/05 10:38:46;;;;;;;13.20;12.50;;;36.00;99.90;;;;;;6250460;22;20418;-54
2022/09/05 10:41:14;;;;;;;12.23;11.60;;;35.60;99.90;;;;;;6271627;22;20395;-51
2022/09/05 10:43:46;;;;;;;12.20;11.40;;;35.30;99.90;;;;;;6271807;22;21013;-54
2022/09/05 10:46:29;;;;;;;13.40;12.60;;;35.10;99.90;;;;;;6271840;22;20413;-53
2022/09/05 10:49:03;;;;;;;12.87;12.17;;;35.90;99.90;;;;;;6273786;22;20381;-49
2022/09/05 10:51:46;;;;;;;13.37;12.60;;;36.20;99.90;;;;;;6273851;22;20415;-50
2022/09/05 10:54:44;;;;;;;12.23;11.63;;;36.70;99.90;;;;;;6273724;22;20363;-52
2022/09/05 10:57:50;;;;;;;11.30;10.63;;;36.90;99.90;;;;;;6273584;22;20360;-50
2022/09/05 11:00:37;;;;;;;10.83;10.23;;;37.10;99.90;;;;;;6230804;22;20393;-52
2022/09/05 11:03:04;;;;;;;10.83;10.17;;;36.80;99.90;;;;;;6273718;22;20382;-51
2022/09/05 11:05:36;;;;;;;11.23;10.40;;;35.70;99.90;;;;;;6273818;22;20417;-52
2022/09/05 11:08:07;;;;;;;10.93;10.33;;;35.10;99.90;;;;;;6273716;22;20355;-50
2022/09/05 11:10:54;;;;;;;11.47;10.70;;;36.00;99.90;;;;;;6273414;22;20494;-54
2022/09/05 11:13:45;;;;;;;10.67;10.07;;;36.50;99.90;;;;;;6273626;22;20371;-54
2022/09/05 11:16:20;;;;;;;11.10;10.50;;;35.90;99.90;;;;;;6273600;22;20368;-51
2022/09/05 11:19:04;;;;;;;11.07;10.20;;;36.20;99.90;;;;;;6273450;22;20889;-52
2022/09/05 11:21:36;;;;;;;11.10;10.50;;;37.00;99.90;;;;;;6273456;22;20364;-51
2022/09/05 11:24:20;;;;;;;10.50;9.90;;;37.20;99.90;;;;;;6273588;22;20363;-54
2022/09/05 11:27:01;;;;;;;10.70;10.03;;;38.00;99.90;;;;;;6273132;22;20454;-54
2022/09/05 11:29:51;;;;;;;11.63;10.73;;;36.70;99.90;;;;;;6273581;22;20442;-50
2022/09/05 11:32:29;;;;;;;10.17;9.67;;;36.50;99.90;;;;;;6273041;22;20375;-52
2022/09/05 11:35:36;;;;;;;10.47;9.97;;;36.00;99.90;;;;;;6273106;22;20378;-53
2022/09/05 11:38:07;;;;;;;10.00;9.50;;;36.30;99.90;;;;;;6251541;22;20383;-53
2022/09/05 11:40:48;;;;;;;11.03;10.33;;;36.40;99.90;;;;;;6273383;22;20739;-53
2022/09/05 11:43:19;;;;;;;11.83;10.93;;;35.70;99.90;;;;;;6273095;22;20684;-52
2022/09/05 11:46:25;;;;;;;10.77;10.20;;;35.60;99.90;;;;;;6273217;22;20350;-52
2022/09/05 11:49:32;;;;;;;11.40;10.80;;;35.90;99.90;;;;;;6273390;22;20366;-50
2022/09/05 11:52:35;;;;;;;11.50;10.80;;;34.60;99.90;;;;;;6273176;22;20423;-51
2022/09/05 11:55:23;;;;;;;10.63;9.93;;;34.30;99.90;;;;;;6273411;22;20355;-53
2022/09/05 11:57:51;;;;;;;11.10;10.50;;;34.30;99.90;;;;;;6272902;22;20798;-52
2022/09/05 12:00:37;;;;;;;11.40;10.70;;;34.60;99.90;;;;;;6271526;22;20391;-50
2022/09/05 12:03:40;;;;;;;12.30;11.33;;;35.00;99.90;;;;;;6273121;22;20363;-51
2022/09/05 12:06:23;;;;;;;12.33;11.53;;;34.20;99.90;;;;;;6273256;22;21272;-48
2022/09/05 12:08:51;;;;;;;11.33;10.63;;;33.20;99.90;;;;;;6272879;22;20663;-51
2022/09/05 12:11:44;;;;;;;11.20;10.60;;;32.70;99.90;;;;;;6273227;22;20415;-49
2022/09/05 12:14:27;;;;;;;12.27;11.47;;;33.00;99.90;;;;;;6273107;22;20355;-47
2022/09/05 12:16:59;;;;;;;12.27;11.47;;;32.50;99.90;;;;;;6272144;22;20712;-51
2022/09/05 12:19:47;;;;;;;11.60;10.90;;;31.90;99.90;;;;;;6272807;22;20810;-49
2022/09/05 12:22:33;;;;;;;12.73;11.93;;;31.40;99.90;;;;;;6272694;22;20368;-52
2022/09/05 12:25:20;;;;;;;12.07;11.27;;;30.40;99.90;;;;;;6272651;22;20692;-53
2022/09/05 12:27:50;;;;;;;13.00;12.20;;;29.80;99.90;;;;;;6272772;22;20447;-51
2022/09/05 12:30:27;;;;;;;11.27;10.67;;;29.40;99.90;;;;;;6272789;22;20419;-49
2022/09/05 12:33:12;;;;;;;12.47;11.50;;;29.00;99.90;;;;;;6272891;22;20352;-53
2022/09/05 12:36:15;;;;;;;13.20;12.37;;;28.90;99.90;;;;;;6272866;22;20356;-49
2022/09/05 12:38:55;;;;;;;12.60;11.80;;;28.50;99.90;;;;;;6272758;22;20367;-50
2022/09/05 12:41:24;;;;;;;11.80;11.00;;;28.20;99.90;;;;;;6272674;22;20367;-50
2022/09/05 12:44:01;;;;;;;12.17;11.27;;;28.30;99.90;;;;;;6272540;22;20379;-49
2022/09/05 12:46:32;;;;;;;13.40;12.47;;;28.20;99.90;;;;;;6272185;22;20350;-51
2022/09/05 12:49:13;;;;;;;12.83;11.90;;;28.20;99.90;;;;;;6272404;22;20382;-50
2022/09/05 12:51:45;;;;;;;13.87;12.80;;;28.50;99.90;;;;;;6272670;22;20411;-50
2022/09/05 12:54:54;;;;;;;13.70;12.70;;;28.90;99.90;;;;;;6272437;22;20391;-51
2022/09/05 12:57:26;;;;;;;12.60;11.60;;;29.40;99.90;;;;;;6148177;23;20392;-52
2022/09/05 13:00:01;;;;;;;12.40;11.50;;;29.80;99.90;;;;;;6123120;23;20383;-50
2022/09/05 13:02:30;;;;;;;13.07;12.17;;;29.70;99.90;;;;;;6122910;23;20394;-55
2022/09/05 13:05:08;;;;;;;12.70;11.90;;;28.80;99.90;;;;;;6147721;23;20363;-52
2022/09/05 13:07:47;;;;;;;12.70;11.70;;;28.60;99.90;;;;;;6122791;23;20375;-47
2022/09/05 13:10:36;;;;;;;12.43;11.50;;;28.70;99.90;;;;;;6146793;23;20901;-51
2022/09/05 13:13:12;;;;;;;13.30;12.27;;;28.40;99.90;;;;;;6147558;23;20921;-53
2022/09/05 13:15:42;;;;;;;12.43;11.53;;;28.20;99.90;;;;;;6145840;23;20382;-50
2022/09/05 13:18:17;;;;;;;12.83;12.03;;;28.20;99.90;;;;;;6148489;23;20431;-50
2022/09/05 13:20:50;;;;;;;13.57;12.57;;;28.10;99.90;;;;;;6147764;23;20387;-51
2022/09/05 13:23:24;;;;;;;12.43;11.63;;;28.50;99.90;;;;;;6147276;23;20518;-50
2022/09/05 13:26:09;;;;;;;13.80;12.90;;;28.60;99.90;;;;;;6146759;23;20367;-52
2022/09/05 13:28:55;;;;;;;12.90;12.10;;;28.70;99.90;;;;;;6238089;22;20851;-52
2022/09/05 13:31:41;;;;;;;12.93;12.13;;;28.80;99.90;;;;;;6271947;22;20492;-49
2022/09/05 13:34:30;;;;;;;13.73;12.60;;;28.80;99.90;;;;;;6270476;22;20493;-53
2022/09/05 13:37:02;;;;;;;14.20;13.30;;;28.80;99.90;;;;;;6272422;22;20844;-53
2022/09/05 13:39:39;;;;;;;13.20;12.07;;;28.90;99.90;;;;;;6272864;22;20805;-49
2022/09/05 13:42:09;;;;;;;14.07;13.07;;;28.70;99.90;;;;;;6271556;22;21252;-51
2022/09/05 13:44:41;;;;;;;13.97;12.87;;;28.80;99.90;;;;;;6271053;22;20459;-54
2022/09/05 13:47:23;;;;;;;14.37;13.47;;;29.20;99.90;;;;;;6272092;22;20398;-53
2022/09/05 13:50:12;;;;;;;13.83;12.83;;;29.00;99.90;;;;;;6271032;22;20364;-50